Time;durP1;ratioP1;P1;durP2;ratioP2;P2;SDS_P1;SDS_P2;PMS_P1;PMS_P2;Temp;Humidity;BMP_temperature;BMP_pressure;BME280_temperature;BME280_humidity;BME280_pressure;Samples;Min_cycle;Max_cycle;Signal;HPM_P1;HPM_P2
2022/05/14 00:00:40;;;;;;;26.15;7.03;;;13.10;83.30;;;;;;5072494;28;20055;-71
2022/05/14 00:03:06;;;;;;;24.15;7.25;;;13.20;83.20;;;;;;5073564;28;20056;-71
2022/05/14 00:05:31;;;;;;;31.65;10.23;;;13.20;83.40;;;;;;5073317;28;20473;-71
2022/05/14 00:07:57;;;;;;;26.60;8.45;;;13.20;83.40;;;;;;5073451;28;20151;-71
2022/05/14 00:10:26;;;;;;;29.63;10.85;;;13.20;83.50;;;;;;5071722;28;20056;-71
2022/05/14 00:13:04;;;;;;;22.67;6.68;;;13.10;83.70;;;;;;5073015;28;20071;-71
2022/05/14 00:15:38;;;;;;;23.55;9.02;;;13.10;84.20;;;;;;5073118;28;20830;-71
2022/05/14 00:18:05;;;;;;;28.48;7.65;;;13.10;83.80;;;;;;5073234;28;20049;-71
2022/05/14 00:20:35;;;;;;;24.15;7.07;;;13.10;83.90;;;;;;5075791;28;20047;-71
2022/05/14 00:23:01;;;;;;;24.42;7.53;;;13.10;84.20;;;;;;5092959;28;20423;-71
2022/05/14 00:25:26;;;;;;;22.63;7.38;;;13.00;84.40;;;;;;5093472;28;20160;-71
2022/05/14 00:27:53;;;;;;;36.70;9.02;;;13.00;84.60;;;;;;5093139;28;20040;-71
2022/05/14 00:30:23;;;;;;;34.85;9.95;;;12.90;84.60;;;;;;5093210;28;20083;-71
2022/05/14 00:32:49;;;;;;;27.60;7.55;;;13.00;84.50;;;;;;5093246;28;20047;-71
2022/05/14 00:35:15;;;;;;;26.27;8.50;;;12.90;84.40;;;;;;5093347;28;20054;-71
2022/05/14 00:37:41;;;;;;;25.73;8.65;;;12.90;84.90;;;;;;5092506;28;20131;-71
2022/05/14 00:40:11;;;;;;;31.98;7.60;;;12.90;84.60;;;;;;5093164;28;20058;-71
2022/05/14 00:42:37;;;;;;;33.08;8.63;;;12.90;85.10;;;;;;5092879;28;20098;-71
2022/05/14 00:45:07;;;;;;;32.28;10.07;;;12.80;85.00;;;;;;5092943;28;20044;-71
2022/05/14 00:47:37;;;;;;;40.63;7.90;;;12.80;85.00;;;;;;5092237;28;20052;-71
2022/05/14 00:50:26;;;;;;;28.40;8.75;;;12.80;84.80;;;;;;5092256;28;20158;-71
2022/05/14 00:53:08;;;;;;;38.55;8.30;;;12.90;84.90;;;;;;5089489;28;20067;-72
2022/05/14 00:55:35;;;;;;;42.90;11.60;;;12.80;85.70;;;;;;5092542;28;20052;-71
2022/05/14 00:58:02;;;;;;;30.27;8.02;;;12.70;85.70;;;;;;5092722;28;20074;-71
2022/05/14 01:00:29;;;;;;;30.95;7.47;;;12.80;85.50;;;;;;5092416;28;20036;-72
2022/05/14 01:02:54;;;;;;;34.38;8.45;;;12.70;85.40;;;;;;5092131;28;20059;-72
2022/05/14 01:05:21;;;;;;;30.83;8.35;;;12.80;85.20;;;;;;5092383;28;20036;-72
2022/05/14 01:07:49;;;;;;;39.20;10.60;;;12.80;85.10;;;;;;5092455;28;20047;-72
2022/05/14 01:10:17;;;;;;;39.47;8.85;;;12.80;85.10;;;;;;5092505;28;20096;-72
2022/05/14 01:12:59;;;;;;;31.63;9.65;;;12.80;85.30;;;;;;5092259;28;20451;-72
2022/05/14 01:15:38;;;;;;;35.63;9.43;;;12.80;85.00;;;;;;5092064;28;20052;-71
2022/05/14 01:18:04;;;;;;;31.45;8.00;;;12.70;85.00;;;;;;5092252;28;20085;-72
2022/05/14 01:20:35;;;;;;;26.52;8.20;;;12.60;85.60;;;;;;5089703;28;20039;-70
2022/05/14 01:23:27;;;;;;;27.55;9.05;;;12.60;85.30;;;;;;5072153;28;20463;-70
2022/05/14 01:28:42;;;;;;;28.63;8.15;;;12.60;85.30;;;;;;5071549;28;20053;-71
2022/05/14 01:31:08;;;;;;;36.70;7.68;;;12.60;85.60;;;;;;5071723;28;20052;-71
2022/05/14 01:33:34;;;;;;;37.55;9.07;;;12.60;85.60;;;;;;5071697;28;20040;-71
2022/05/14 01:36:00;;;;;;;32.22;9.25;;;12.60;86.00;;;;;;5071604;28;20513;-71
2022/05/14 01:38:26;;;;;;;34.63;8.60;;;12.50;85.80;;;;;;5071502;28;20040;-72
2022/05/14 01:40:52;;;;;;;38.25;8.60;;;12.50;85.60;;;;;;5071413;28;20052;-71
2022/05/14 01:43:18;;;;;;;32.67;9.32;;;12.50;85.60;;;;;;5071528;28;20044;-71
2022/05/14 01:45:44;;;;;;;25.23;8.25;;;12.50;86.10;;;;;;5071607;28;20087;-71
2022/05/14 01:48:09;;;;;;;30.65;9.13;;;12.60;85.90;;;;;;5071446;28;20072;-71
2022/05/14 01:50:35;;;;;;;25.50;6.80;;;12.50;86.10;;;;;;5071274;28;20123;-71
2022/05/14 01:53:01;;;;;;;33.00;8.80;;;12.50;86.00;;;;;;5070285;28;20504;-72
2022/05/14 01:55:27;;;;;;;37.45;10.52;;;12.40;86.50;;;;;;5071537;28;20049;-72
2022/05/14 01:57:52;;;;;;;36.42;9.38;;;12.50;86.40;;;;;;5071253;28;20044;-72
2022/05/14 02:00:21;;;;;;;32.40;8.13;;;12.40;86.10;;;;;;5071099;28;20040;-71
2022/05/14 02:02:47;;;;;;;35.72;9.85;;;12.40;86.00;;;;;;5069303;28;20097;-72
2022/05/14 02:05:14;;;;;;;28.27;8.73;;;12.40;86.20;;;;;;5071000;28;20516;-71
2022/05/14 02:07:41;;;;;;;37.88;8.63;;;12.40;86.10;;;;;;5070995;28;20048;-71
2022/05/14 02:10:07;;;;;;;33.08;9.90;;;12.40;86.00;;;;;;5071020;28;20044;-71
2022/05/14 02:12:33;;;;;;;35.70;9.75;;;12.40;86.00;;;;;;5070362;28;20837;-70
2022/05/14 02:14:59;;;;;;;29.20;8.70;;;12.40;85.90;;;;;;5070747;28;20044;-71
2022/05/14 02:17:25;;;;;;;30.33;8.32;;;12.40;85.90;;;;;;5070371;28;20052;-71
2022/05/14 02:19:51;;;;;;;40.80;10.00;;;12.40;86.00;;;;;;5070630;28;20048;-72
2022/05/14 02:22:17;;;;;;;36.03;9.65;;;12.30;86.50;;;;;;5087768;28;20044;-70
2022/05/14 02:24:42;;;;;;;38.88;8.77;;;12.20;86.80;;;;;;5090761;28;20046;-70
2022/05/14 02:27:08;;;;;;;50.67;11.63;;;12.30;86.80;;;;;;5091041;28;20511;-70
2022/05/14 02:29:53;;;;;;;33.75;9.23;;;12.30;86.50;;;;;;5090518;28;20101;-71
2022/05/14 02:32:21;;;;;;;32.42;9.00;;;12.30;86.80;;;;;;5090653;28;20059;-71
2022/05/14 02:34:47;;;;;;;43.00;10.63;;;12.30;86.50;;;;;;5091060;28;20054;-71
2022/05/14 02:37:17;;;;;;;33.58;8.65;;;12.20;86.60;;;;;;5090699;28;20047;-71
2022/05/14 02:39:43;;;;;;;33.10;9.93;;;12.20;86.70;;;;;;5090382;28;20070;-71
2022/05/14 02:42:09;;;;;;;33.00;8.00;;;12.10;86.80;;;;;;5090760;28;20040;-71
2022/05/14 02:44:34;;;;;;;41.10;9.93;;;12.10;86.80;;;;;;5090527;28;20408;-71
2022/05/14 02:47:00;;;;;;;40.50;9.25;;;12.10;87.00;;;;;;5090806;28;20047;-71
2022/05/14 02:49:26;;;;;;;44.05;10.23;;;12.10;87.00;;;;;;5090315;28;20048;-71
2022/05/14 02:51:51;;;;;;;42.45;10.98;;;12.10;87.20;;;;;;5090607;28;20460;-71
2022/05/14 02:54:17;;;;;;;37.55;9.95;;;12.10;87.40;;;;;;5090376;28;20131;-72
2022/05/14 02:56:42;;;;;;;27.58;10.60;;;12.10;87.20;;;;;;5089193;28;20101;-72
2022/05/14 02:59:08;;;;;;;31.40;9.95;;;12.00;87.30;;;;;;5090570;28;20040;-71
2022/05/14 03:01:35;;;;;;;40.45;8.85;;;12.00;87.40;;;;;;5090314;28;20044;-72
2022/05/14 03:04:01;;;;;;;39.83;10.40;;;12.00;87.30;;;;;;5090524;28;20145;-71
2022/05/14 03:06:28;;;;;;;41.42;9.63;;;12.00;87.30;;;;;;5090173;28;20048;-72
2022/05/14 03:08:53;;;;;;;34.00;8.77;;;12.00;87.30;;;;;;5090587;28;20040;-72
2022/05/14 03:11:20;;;;;;;38.85;10.05;;;12.00;87.30;;;;;;5090109;28;20059;-71
2022/05/14 03:13:45;;;;;;;37.42;9.95;;;11.90;87.20;;;;;;5089427;28;20050;-71
2022/05/14 03:16:12;;;;;;;40.25;11.18;;;11.90;87.50;;;;;;5090264;28;20044;-71
2022/05/14 03:18:37;;;;;;;37.42;10.32;;;11.90;87.40;;;;;;5090344;28;20040;-71
2022/05/14 03:21:03;;;;;;;38.28;8.80;;;11.90;87.50;;;;;;5083059;28;20047;-71
2022/05/14 03:23:29;;;;;;;52.13;9.85;;;11.90;87.40;;;;;;5069904;28;20088;-71
2022/05/14 03:25:55;;;;;;;40.22;9.43;;;11.90;87.70;;;;;;5070103;28;20171;-72
2022/05/14 03:28:21;;;;;;;42.38;10.75;;;11.90;87.60;;;;;;5070054;28;20032;-71
2022/05/14 03:30:46;;;;;;;43.63;10.40;;;11.80;87.70;;;;;;5068580;28;20070;-72
2022/05/14 03:33:12;;;;;;;29.70;9.20;;;11.80;87.60;;;;;;5070011;28;20044;-71
2022/05/14 03:35:37;;;;;;;35.38;9.05;;;11.90;87.60;;;;;;5069827;28;20169;-71
2022/05/14 03:38:03;;;;;;;34.75;9.27;;;11.90;87.80;;;;;;5069933;28;20044;-71
2022/05/14 03:40:29;;;;;;;37.13;9.77;;;11.80;87.80;;;;;;5069584;28;20573;-72
2022/05/14 03:42:54;;;;;;;41.72;9.68;;;11.80;87.80;;;;;;5069748;28;20048;-72
2022/05/14 03:45:20;;;;;;;32.17;8.32;;;11.90;87.70;;;;;;5069656;28;20168;-72
2022/05/14 03:47:46;;;;;;;38.55;10.10;;;11.90;87.70;;;;;;5069677;28;20041;-72
2022/05/14 03:50:11;;;;;;;39.50;8.35;;;11.90;87.60;;;;;;5069681;28;20040;-69
2022/05/14 03:52:37;;;;;;;45.70;10.00;;;11.90;87.60;;;;;;5069346;28;20048;-70
2022/05/14 03:55:03;;;;;;;37.90;9.13;;;11.90;87.50;;;;;;5069757;28;20508;-70
2022/05/14 03:57:29;;;;;;;33.67;8.10;;;11.90;87.60;;;;;;5068447;28;20049;-71
2022/05/14 03:59:54;;;;;;;27.60;9.38;;;11.90;87.60;;;;;;5069622;28;20122;-71
2022/05/14 04:02:21;;;;;;;31.65;8.30;;;11.90;87.50;;;;;;5068222;28;20041;-71
2022/05/14 04:04:47;;;;;;;31.35;8.52;;;11.90;87.80;;;;;;5068150;28;20045;-70
2022/05/14 04:07:12;;;;;;;39.85;8.55;;;11.90;87.90;;;;;;5068542;28;20040;-71
2022/05/14 04:09:38;;;;;;;37.33;8.90;;;11.90;87.80;;;;;;5068523;28;20737;-71
2022/05/14 04:12:04;;;;;;;37.05;9.48;;;11.90;87.70;;;;;;5068317;28;20058;-70
2022/05/14 04:14:30;;;;;;;28.70;7.88;;;11.90;87.50;;;;;;5068427;28;20052;-70
2022/05/14 04:16:55;;;;;;;28.30;8.48;;;12.00;87.50;;;;;;5068115;28;20429;-71
2022/05/14 04:19:21;;;;;;;26.75;8.20;;;12.00;87.40;;;;;;5068501;28;20131;-70
2022/05/14 04:21:48;;;;;;;31.05;7.30;;;12.00;87.50;;;;;;5081466;28;20042;-70
2022/05/14 04:24:14;;;;;;;31.02;7.45;;;12.00;87.50;;;;;;5089083;28;20101;-70
2022/05/14 04:26:40;;;;;;;37.35;8.30;;;12.00;87.60;;;;;;5092144;28;20114;-71
2022/05/14 04:29:06;;;;;;;29.77;8.90;;;12.10;87.50;;;;;;5092013;28;20578;-71
2022/05/14 04:31:32;;;;;;;30.35;8.45;;;12.00;87.50;;;;;;5092129;28;20040;-70
2022/05/14 04:33:57;;;;;;;30.77;7.43;;;12.10;87.30;;;;;;5092023;28;20052;-70
2022/05/14 04:36:23;;;;;;;31.30;7.80;;;12.10;87.20;;;;;;5091754;28;20032;-70
2022/05/14 04:38:49;;;;;;;41.22;9.70;;;12.10;87.20;;;;;;5091882;28;20032;-71
2022/05/14 04:41:15;;;;;;;22.58;7.88;;;12.10;87.10;;;;;;5091602;28;20101;-71
2022/05/14 04:43:40;;;;;;;25.80;6.93;;;12.10;87.00;;;;;;5091822;28;20047;-71
2022/05/14 04:46:09;;;;;;;30.65;7.07;;;12.10;86.90;;;;;;5091803;28;20040;-72
2022/05/14 04:48:36;;;;;;;32.30;7.68;;;12.20;86.90;;;;;;5091613;28;20119;-71
2022/05/14 04:51:02;;;;;;;36.72;7.75;;;12.20;86.90;;;;;;5091892;28;20048;-71
2022/05/14 04:53:28;;;;;;;35.50;8.73;;;12.20;86.70;;;;;;5091148;28;20044;-71
2022/05/14 04:55:53;;;;;;;31.27;7.68;;;12.30;86.70;;;;;;5090704;28;20903;-71
2022/05/14 04:58:20;;;;;;;33.33;8.60;;;12.20;86.50;;;;;;5071338;28;20091;-71
2022/05/14 05:00:46;;;;;;;28.38;7.28;;;12.30;86.50;;;;;;5071543;28;20048;-71
2022/05/14 05:03:19;;;;;;;31.90;8.68;;;12.30;86.30;;;;;;5071005;28;20095;-71
2022/05/14 05:06:06;;;;;;;29.27;8.48;;;12.40;86.20;;;;;;5071234;28;20576;-71
2022/05/14 05:08:33;;;;;;;31.60;8.85;;;12.50;86.00;;;;;;5071319;28;20529;-71
2022/05/14 05:10:58;;;;;;;30.27;7.78;;;12.50;86.10;;;;;;5070920;28;20493;-72
2022/05/14 05:13:28;;;;;;;27.88;8.60;;;12.50;85.80;;;;;;5070980;28;20110;-71
2022/05/14 05:15:54;;;;;;;23.88;7.15;;;12.60;85.70;;;;;;5071082;28;20097;-71
2022/05/14 05:18:20;;;;;;;21.45;6.28;;;12.60;85.60;;;;;;5071202;28;20083;-72
2022/05/14 05:20:49;;;;;;;26.38;7.45;;;12.60;85.60;;;;;;5069747;28;20084;-71
2022/05/14 05:23:18;;;;;;;24.38;6.93;;;12.60;85.20;;;;;;5070689;28;20048;-71
2022/05/14 05:25:44;;;;;;;25.63;7.35;;;12.70;85.50;;;;;;5070585;28;20135;-72
2022/05/14 05:28:10;;;;;;;30.67;6.85;;;12.70;85.30;;;;;;5070578;28;20044;-71
2022/05/14 05:30:36;;;;;;;29.42;7.65;;;12.80;85.20;;;;;;5070801;28;20127;-71
2022/05/14 05:33:02;;;;;;;30.45;8.27;;;12.90;85.00;;;;;;5070700;28;20048;-71
2022/05/14 05:35:28;;;;;;;29.58;7.28;;;12.90;84.90;;;;;;5070333;28;20409;-71
2022/05/14 05:37:54;;;;;;;32.30;10.23;;;12.90;84.70;;;;;;5070182;28;20044;-71
2022/05/14 05:40:19;;;;;;;20.27;6.55;;;13.00;84.60;;;;;;5086302;28;20136;-71
2022/05/14 05:42:45;;;;;;;23.25;6.15;;;13.10;84.50;;;;;;5070391;28;21152;-71
2022/05/14 05:45:13;;;;;;;23.90;7.25;;;13.10;84.40;;;;;;5070009;28;20032;-71
2022/05/14 05:47:39;;;;;;;23.55;7.43;;;13.10;84.40;;;;;;5070616;28;20048;-71
2022/05/14 05:50:06;;;;;;;26.58;6.63;;;13.20;84.40;;;;;;5070420;28;20045;-71
2022/05/14 05:52:34;;;;;;;21.65;6.57;;;13.30;84.20;;;;;;5070324;28;20478;-71
2022/05/14 05:57:45;;;;;;;35.85;8.32;;;13.40;83.90;;;;;;5070432;28;20060;-71
2022/05/14 06:00:18;;;;;;;30.23;7.18;;;13.40;83.90;;;;;;5070228;28;20094;-71
2022/05/14 06:02:44;;;;;;;32.22;9.88;;;13.50;83.70;;;;;;5069968;28;20049;-71
2022/05/14 06:05:10;;;;;;;24.50;8.38;;;13.50;83.30;;;;;;5069779;28;20044;-71
2022/05/14 06:07:36;;;;;;;27.60;7.20;;;13.60;83.30;;;;;;5069929;28;20063;-71
2022/05/14 06:10:04;;;;;;;33.67;7.13;;;13.60;83.00;;;;;;5069858;28;20439;-71
2022/05/14 06:12:30;;;;;;;23.00;6.60;;;13.60;82.80;;;;;;5081593;28;20055;-71
2022/05/14 06:14:56;;;;;;;23.30;6.13;;;13.70;83.00;;;;;;5090446;28;20052;-70
2022/05/14 06:17:21;;;;;;;28.42;7.18;;;13.70;82.90;;;;;;5089950;28;20036;-71
2022/05/14 06:19:48;;;;;;;31.70;6.68;;;13.80;82.70;;;;;;5089569;28;20054;-71
2022/05/14 06:22:14;;;;;;;19.38;5.78;;;13.90;82.60;;;;;;5085438;28;20069;-71
2022/05/14 06:24:40;;;;;;;31.83;7.88;;;13.90;82.50;;;;;;5089531;28;20498;-70
2022/05/14 06:27:06;;;;;;;20.58;6.35;;;14.00;82.30;;;;;;5085214;28;20047;-70
2022/05/14 06:29:33;;;;;;;27.70;6.57;;;14.10;81.80;;;;;;5084164;28;20086;-70
2022/05/14 06:31:59;;;;;;;28.27;6.68;;;14.10;81.70;;;;;;5082525;28;20059;-71
2022/05/14 06:34:25;;;;;;;25.05;6.28;;;14.10;81.60;;;;;;5074805;28;20032;-71
2022/05/14 06:36:52;;;;;;;33.08;7.32;;;14.20;80.90;;;;;;5082953;28;20059;-71
2022/05/14 06:39:18;;;;;;;28.58;6.35;;;14.20;80.40;;;;;;5077917;28;20049;-71
2022/05/14 06:41:44;;;;;;;22.25;5.47;;;14.30;80.20;;;;;;5069386;28;20051;-71
2022/05/14 06:44:09;;;;;;;32.50;7.32;;;14.30;80.10;;;;;;5067444;28;20719;-71
2022/05/14 06:46:35;;;;;;;26.88;6.10;;;14.40;80.00;;;;;;5082697;28;20123;-70
2022/05/14 06:49:02;;;;;;;23.75;6.85;;;14.40;79.50;;;;;;5088979;28;20445;-71
2022/05/14 06:51:30;;;;;;;22.92;5.70;;;14.50;79.40;;;;;;5088062;28;20047;-71
2022/05/14 06:54:04;;;;;;;32.72;8.32;;;14.50;78.70;;;;;;5089203;28;20051;-71
2022/05/14 06:56:32;;;;;;;27.02;6.70;;;14.60;78.50;;;;;;5071099;28;20044;-71
2022/05/14 06:58:59;;;;;;;22.05;6.15;;;14.60;78.80;;;;;;5089406;28;20055;-72
2022/05/14 07:01:25;;;;;;;27.23;5.85;;;14.60;78.10;;;;;;5088973;28;20081;-70
2022/05/14 07:06:39;;;;;;;26.73;5.75;;;14.60;76.70;;;;;;5089081;28;20505;-70
2022/05/14 07:09:27;;;;;;;22.27;6.30;;;14.70;77.00;;;;;;5089315;28;20165;-69
2022/05/14 07:11:56;;;;;;;23.83;5.05;;;14.90;76.50;;;;;;5089224;28;20078;-70
2022/05/14 07:14:24;;;;;;;27.15;7.40;;;14.80;76.40;;;;;;5089198;28;20046;-70
2022/05/14 07:16:50;;;;;;;24.45;5.60;;;14.90;76.10;;;;;;5089006;28;20036;-70
2022/05/14 07:19:16;;;;;;;23.38;5.50;;;15.00;75.40;;;;;;5089293;28;20424;-70
2022/05/14 07:21:45;;;;;;;43.20;6.05;;;15.00;75.60;;;;;;5074118;28;20053;-70
2022/05/14 07:24:16;;;;;;;24.15;5.70;;;15.00;74.90;;;;;;5069214;28;20056;-70
2022/05/14 07:26:43;;;;;;;;;;;15.10;75.10;;;;;;5088053;28;20093;-71
2022/05/14 07:29:14;;;;;;;29.55;7.00;;;15.10;74.30;;;;;;5078091;28;19921;-71
2022/05/14 07:31:39;;;;;;;24.08;5.78;;;15.20;75.30;;;;;;5068322;28;20052;-70
2022/05/14 07:34:06;;;;;;;30.05;6.10;;;15.20;74.50;;;;;;5068970;28;20037;-71
2022/05/14 07:36:37;;;;;;;32.35;6.57;;;15.30;73.60;;;;;;5068990;28;20045;-70
2022/05/14 07:39:04;;;;;;;23.05;5.40;;;15.30;72.20;;;;;;5068457;28;20071;-70
2022/05/14 07:41:32;;;;;;;33.92;6.63;;;15.30;72.80;;;;;;5068800;28;20037;-71
2022/05/14 07:44:02;;;;;;;27.77;6.95;;;15.40;71.90;;;;;;5068920;28;20154;-70
2022/05/14 07:46:32;;;;;;;25.60;5.60;;;15.50;72.80;;;;;;5069086;28;20049;-71
2022/05/14 07:49:00;;;;;;;21.15;5.22;;;15.50;72.30;;;;;;5068480;28;20512;-70
2022/05/14 07:51:26;;;;;;;23.65;5.75;;;15.60;72.50;;;;;;5068911;28;20051;-70
2022/05/14 07:53:53;;;;;;;24.05;4.97;;;15.60;70.60;;;;;;5068664;28;20093;-70
2022/05/14 07:56:18;;;;;;;25.05;5.63;;;15.60;71.90;;;;;;5068798;28;20102;-71
2022/05/14 07:58:44;;;;;;;20.55;4.80;;;15.70;71.70;;;;;;5070119;28;20476;-71
2022/05/14 08:01:10;;;;;;;22.25;6.60;;;15.70;70.90;;;;;;5072406;28;20041;-70
2022/05/14 08:03:36;;;;;;;21.55;6.07;;;15.80;71.00;;;;;;5072419;28;20044;-70
2022/05/14 08:06:02;;;;;;;19.13;6.63;;;15.80;71.60;;;;;;5072488;28;20040;-70
2022/05/14 08:08:28;;;;;;;28.63;5.63;;;16.00;71.70;;;;;;5072175;28;20141;-70
2022/05/14 08:10:55;;;;;;;23.70;5.47;;;16.10;71.30;;;;;;5070890;28;21774;-70
2022/05/14 08:13:22;;;;;;;29.10;7.00;;;16.10;71.20;;;;;;5072362;28;20509;-70
2022/05/14 08:15:49;;;;;;;27.00;6.70;;;16.20;70.80;;;;;;5071677;28;20159;-70
2022/05/14 08:18:16;;;;;;;23.20;5.57;;;16.20;70.00;;;;;;5072335;28;20045;-70
2022/05/14 08:20:43;;;;;;;29.25;5.88;;;16.20;69.50;;;;;;5070933;28;20052;-70
2022/05/14 08:25:59;;;;;;;27.92;5.20;;;16.20;70.20;;;;;;5072053;28;20469;-70
2022/05/14 08:28:26;;;;;;;25.73;5.78;;;16.30;70.60;;;;;;5071753;28;20885;-70
2022/05/14 08:30:52;;;;;;;20.20;5.47;;;16.30;70.00;;;;;;5071898;28;20052;-70
2022/05/14 08:33:19;;;;;;;22.63;5.63;;;16.30;69.90;;;;;;5072133;28;20132;-70
2022/05/14 08:35:46;;;;;;;23.13;4.85;;;16.40;70.20;;;;;;5071871;28;20055;-71
2022/05/14 08:38:13;;;;;;;28.58;5.20;;;16.40;69.40;;;;;;5071863;28;20041;-70
2022/05/14 08:40:41;;;;;;;21.73;5.20;;;16.50;69.60;;;;;;5071602;28;20056;-70
2022/05/14 08:43:22;;;;;;;21.02;5.10;;;16.60;69.50;;;;;;5071719;28;20045;-71
2022/05/14 08:45:47;;;;;;;34.28;5.93;;;16.70;69.00;;;;;;5071639;28;20103;-71
2022/05/14 08:48:26;;;;;;;25.88;7.28;;;16.60;68.60;;;;;;5071450;28;20076;-71
2022/05/14 08:51:16;;;;;;;25.65;4.63;;;16.50;66.50;;;;;;5071652;28;20128;-71
2022/05/14 08:53:45;;;;;;;23.27;5.82;;;16.50;67.50;;;;;;5066237;28;20052;-71
2022/05/14 08:56:20;;;;;;;30.17;6.38;;;16.50;68.10;;;;;;5072184;28;20064;-70
2022/05/14 08:59:29;;;;;;;27.73;6.28;;;16.50;67.30;;;;;;5070966;28;20059;-70
2022/05/14 09:02:07;;;;;;;26.23;7.20;;;16.50;63.20;;;;;;5053395;28;20055;-70
2022/05/14 09:04:32;;;;;;;30.83;6.93;;;16.60;64.70;;;;;;5090708;28;20075;-70
2022/05/14 09:06:58;;;;;;;25.90;4.93;;;16.60;66.30;;;;;;5091729;28;20128;-70
2022/05/14 09:09:23;;;;;;;22.95;5.43;;;16.60;64.70;;;;;;5091436;28;20097;-70
2022/05/14 09:11:57;;;;;;;25.08;6.18;;;16.70;65.50;;;;;;5090325;28;20052;-70
2022/05/14 09:14:32;;;;;;;33.40;5.72;;;16.80;65.70;;;;;;5088541;28;20515;-70
2022/05/14 09:17:20;;;;;;;26.38;6.05;;;16.90;64.00;;;;;;5091281;28;20669;-70
2022/05/14 09:19:47;;;;;;;27.08;7.40;;;16.80;64.30;;;;;;5090823;28;20094;-70
2022/05/14 09:22:23;;;;;;;25.35;5.13;;;16.90;65.00;;;;;;5090052;28;20055;-69
2022/05/14 09:25:01;;;;;;;25.77;5.18;;;17.10;65.10;;;;;;5091265;28;20116;-70
2022/05/14 09:27:42;;;;;;;24.13;5.70;;;17.10;63.70;;;;;;5091089;28;20044;-70
2022/05/14 09:30:13;;;;;;;26.13;5.70;;;17.10;64.60;;;;;;5090791;28;20070;-70
2022/05/14 09:32:45;;;;;;;26.38;5.05;;;17.10;65.20;;;;;;5090997;28;20154;-69
2022/05/14 09:35:22;;;;;;;21.20;4.97;;;17.20;65.40;;;;;;5081695;28;20032;-70
2022/05/14 09:37:47;;;;;;;20.73;6.28;;;17.30;65.10;;;;;;5089989;28;21001;-70
2022/05/14 09:40:20;;;;;;;28.77;6.28;;;17.30;64.60;;;;;;5090502;28;20048;-70
2022/05/14 09:43:11;;;;;;;24.85;6.38;;;17.30;64.10;;;;;;5089693;28;20055;-71
2022/05/14 09:45:40;;;;;;;26.75;5.47;;;17.30;63.40;;;;;;5090268;28;20044;-70
2022/05/14 09:48:15;;;;;;;23.73;4.72;;;17.30;64.60;;;;;;5090280;28;20554;-70
2022/05/14 09:50:43;;;;;;;27.00;5.78;;;17.40;64.20;;;;;;5090107;28;20512;-71
2022/05/14 09:53:09;;;;;;;21.88;5.68;;;17.50;63.80;;;;;;5090154;28;20044;-69
2022/05/14 09:55:40;;;;;;;29.88;7.07;;;17.50;63.70;;;;;;5088617;28;20396;-70
2022/05/14 09:58:28;;;;;;;28.30;4.93;;;17.60;62.60;;;;;;5090088;28;20043;-69
2022/05/14 10:01:12;;;;;;;27.17;5.65;;;17.60;63.10;;;;;;5088549;28;20040;-70
2022/05/14 10:03:49;;;;;;;22.50;4.65;;;17.50;62.70;;;;;;5084306;28;20520;-76
2022/05/14 10:06:41;;;;;;;24.27;5.22;;;17.40;62.60;;;;;;5088220;28;20086;-76
2022/05/14 10:09:23;;;;;;;30.45;7.10;;;17.50;63.00;;;;;;5069860;28;20497;-70
2022/05/14 10:12:10;;;;;;;32.38;6.57;;;17.70;62.10;;;;;;5069712;28;20087;-70
2022/05/14 10:15:06;;;;;;;23.15;5.47;;;17.60;60.70;;;;;;5069636;28;20049;-73
2022/05/14 10:17:54;;;;;;;30.70;6.28;;;17.60;61.20;;;;;;5076587;28;20489;-70
2022/05/14 10:20:38;;;;;;;22.23;5.57;;;17.70;60.30;;;;;;5077800;28;20040;-68
2022/05/14 10:26:46;;;;;;;20.08;4.50;;;17.80;60.20;;;;;;5089530;28;21096;-71
2022/05/14 10:29:14;;;;;;;23.52;5.35;;;17.90;60.80;;;;;;5069505;28;20055;-69
2022/05/14 10:31:51;;;;;;;22.67;5.07;;;17.90;60.10;;;;;;5069687;28;20436;-69
2022/05/14 10:34:27;;;;;;;21.55;5.28;;;18.00;60.20;;;;;;5051789;28;20045;-70
2022/05/14 10:36:58;;;;;;;26.40;6.38;;;18.10;60.40;;;;;;5068226;28;20052;-69
2022/05/14 10:39:51;;;;;;;23.13;5.97;;;18.10;59.10;;;;;;5068184;28;20040;-70
2022/05/14 10:42:29;;;;;;;25.15;5.70;;;18.20;58.10;;;;;;5068648;28;20405;-69
2022/05/14 10:45:12;;;;;;;25.70;6.05;;;18.10;58.10;;;;;;5069070;28;20048;-69
2022/05/14 10:47:45;;;;;;;26.33;8.35;;;18.20;58.50;;;;;;5069510;28;20040;-69
2022/05/14 10:50:19;;;;;;;19.83;5.57;;;18.10;57.00;;;;;;5068943;28;20362;-70
2022/05/14 10:52:50;;;;;;;29.05;5.93;;;18.00;57.60;;;;;;5068748;28;20037;-69
2022/05/14 10:55:23;;;;;;;17.67;5.80;;;18.10;58.80;;;;;;5069568;28;20041;-70
2022/05/14 10:57:59;;;;;;;24.00;5.60;;;18.00;57.50;;;;;;5069050;28;20036;-69
2022/05/14 11:00:54;;;;;;;27.15;7.63;;;18.00;58.30;;;;;;5067946;28;20501;-69
2022/05/14 11:03:26;;;;;;;36.60;5.80;;;18.00;59.00;;;;;;5067129;28;20056;-69
2022/05/14 11:06:01;;;;;;;25.92;5.00;;;18.20;59.70;;;;;;5069087;28;20044;-69
2022/05/14 11:08:32;;;;;;;25.02;5.28;;;18.40;58.90;;;;;;5069479;28;20056;-70
2022/05/14 11:11:20;;;;;;;30.52;6.15;;;18.40;58.50;;;;;;5069245;28;20408;-69
2022/05/14 11:14:04;;;;;;;38.20;5.18;;;18.30;58.40;;;;;;5069317;28;21790;-69
2022/05/14 11:16:42;;;;;;;23.90;5.93;;;18.30;57.00;;;;;;5069305;28;20086;-69
2022/05/14 11:19:08;;;;;;;28.70;4.72;;;18.50;57.60;;;;;;5068876;28;20044;-69
2022/05/14 11:21:38;;;;;;;24.83;5.40;;;18.50;57.50;;;;;;5068912;28;20378;-69
2022/05/14 11:24:05;;;;;;;18.48;4.25;;;18.60;56.70;;;;;;5068832;28;20516;-70
2022/05/14 11:26:30;;;;;;;26.05;4.38;;;18.50;55.70;;;;;;5069075;28;20048;-69
2022/05/14 11:29:10;;;;;;;21.50;4.53;;;18.60;55.90;;;;;;5068843;28;20049;-69
2022/05/14 11:31:40;;;;;;;21.88;6.57;;;18.50;55.80;;;;;;5068990;28;20497;-69
2022/05/14 11:34:26;;;;;;;27.90;5.78;;;18.50;56.00;;;;;;5071017;28;20044;-69
2022/05/14 11:36:55;;;;;;;22.77;6.45;;;18.40;55.80;;;;;;5073047;28;20082;-69
2022/05/14 11:39:23;;;;;;;18.60;3.85;;;18.30;57.30;;;;;;5072940;28;20043;-69
2022/05/14 11:41:52;;;;;;;23.27;5.50;;;18.40;56.90;;;;;;5072962;28;20044;-69
2022/05/14 11:44:40;;;;;;;22.75;4.60;;;18.60;56.80;;;;;;5073119;28;20405;-69
2022/05/14 11:47:22;;;;;;;17.25;5.03;;;18.80;56.90;;;;;;5072838;28;20049;-69
2022/05/14 11:49:48;;;;;;;;;;;18.90;56.50;;;;;;5073323;28;20048;-69
2022/05/14 11:52:24;;;;;;;24.65;5.22;;;19.00;56.80;;;;;;5072431;28;19924;-69
2022/05/14 11:55:06;;;;;;;30.60;6.45;;;18.90;52.70;;;;;;5072778;28;20052;-69
2022/05/14 11:57:37;;;;;;;25.38;5.45;;;19.00;54.10;;;;;;5072594;28;20394;-69
2022/05/14 12:00:16;;;;;;;32.90;6.18;;;19.10;54.70;;;;;;5072353;28;20044;-69
2022/05/14 12:02:57;;;;;;;24.80;4.88;;;19.10;54.60;;;;;;5072312;28;20095;-69
2022/05/14 12:05:30;;;;;;;28.00;5.65;;;19.10;55.00;;;;;;5072428;28;20143;-69
2022/05/14 12:08:26;;;;;;;24.13;5.20;;;19.20;54.00;;;;;;5072205;28;20040;-69
2022/05/14 12:11:08;;;;;;;24.25;4.75;;;19.10;53.90;;;;;;5072198;28;20076;-69
2022/05/14 12:13:49;;;;;;;26.13;5.07;;;19.10;54.10;;;;;;5072399;28;20513;-69
2022/05/14 12:16:15;;;;;;;32.00;5.50;;;19.10;54.30;;;;;;5072390;28;20052;-69
2022/05/14 12:18:44;;;;;;;22.20;5.20;;;19.10;54.00;;;;;;5072008;28;20041;-69
2022/05/14 12:21:11;;;;;;;27.75;6.20;;;19.30;54.40;;;;;;5077672;28;20068;-70
2022/05/14 12:23:38;;;;;;;22.48;5.28;;;19.30;54.00;;;;;;5089671;28;20051;-69
2022/05/14 12:26:06;;;;;;;23.83;5.75;;;19.30;53.80;;;;;;5082536;28;20041;-69
2022/05/14 12:28:35;;;;;;;20.17;4.65;;;19.40;54.70;;;;;;5072011;28;20052;-69
2022/05/14 12:34:00;;;;;;;24.23;4.50;;;19.70;54.00;;;;;;5072116;28;20044;-70
2022/05/14 12:36:35;;;;;;;23.60;5.55;;;19.60;53.90;;;;;;5071554;28;20041;-70
2022/05/14 12:39:06;;;;;;;27.63;6.25;;;19.50;53.70;;;;;;5081597;28;20439;-70
2022/05/14 12:41:39;;;;;;;20.05;4.40;;;19.60;53.80;;;;;;5070516;28;20638;-70
2022/05/14 12:44:15;;;;;;;19.45;4.90;;;19.60;53.10;;;;;;5071331;28;20070;-70
2022/05/14 12:46:48;;;;;;;29.35;6.38;;;19.60;54.10;;;;;;5069657;28;20049;-71
2022/05/14 12:49:28;;;;;;;19.20;4.35;;;19.60;53.30;;;;;;5071700;28;20062;-69
2022/05/14 12:52:04;;;;;;;29.73;6.43;;;19.60;53.10;;;;;;5071536;28;20071;-69
2022/05/14 12:54:31;;;;;;;26.35;6.32;;;19.60;53.80;;;;;;5071905;28;20896;-68
2022/05/14 12:57:01;;;;;;;30.63;6.32;;;19.60;53.40;;;;;;5071152;28;20085;-68
2022/05/14 12:59:27;;;;;;;23.92;5.10;;;19.80;53.60;;;;;;5080067;28;20054;-66
2022/05/14 13:01:59;;;;;;;27.58;5.72;;;19.80;53.00;;;;;;5091376;28;20507;-68
2022/05/14 13:04:33;;;;;;;16.83;4.22;;;19.90;53.40;;;;;;5091359;28;20535;-78
2022/05/14 13:07:00;;;;;;;18.60;5.13;;;20.00;53.40;;;;;;5071363;28;20063;-68